Montello, WI

8:58 AM CDT on August 21, 2014 (GMT -0500)
WIDOT Montello - I-39 @ STH 23 East | Change Station
CLOSE
Current Station
Personal Weather Station
Location: Packwaukee, WI
Elevation: 850 ft
Nearby Weather Stations

Elev 850 ft 43.79 °N, 89.48 °W | Updated 42 minutes ago

Overcast
Overcast
66 °F
Feels Like 66 °F
N
4
Wind Variable Wind from NE
Gusts 6.0 mph

Today
High -- | Low -- °F
--% Chance of Precip.
Yesterday
High -- | Low -- °F
Precip. -- in
6:08 AM 7:51 PM
Waning Crescent, 14% visible
Pressure 29.94 in
Visibility 6.0 miles
Clouds Overcast 700 ft
Dew Point 64 °F
Humidity 91%
Rainfall -999.00 in
Snow Depth Not available.
UV 1 out of 12
Pollen 8.30 out of 12
Air Quality Not available.
Flu Activity Not available.
SPECI KY50 211329Z AUTO 00000KT 6SM BR OVC007 19/18 A2994 RMK AO2 TSNO

More Conditions Fewer Conditions

Pressure 29.94 in
Visibility 6.0 miles
Clouds Overcast 700 ft
Dew Point 64 °F
Humidity 91%
Rainfall -999.00 in
Snow Depth Not available.
UV 1 out of 12
Pollen 8.30 out of 12
Air Quality Not available.
Flu Activity Not available.
SPECI KY50 211329Z AUTO 00000KT 6SM BR OVC007 19/18 A2994 RMK AO2 TSNO

More Conditions Fewer Conditions

10-Day Weather Forecast

Almanac

Astronomy

Aug. 21, 2014 Rise Set
Actual Time 6:08 AM CDT 7:51 PM CDT
Civil Twilight 5:37 AM CDT 8:22 PM CDT
Nautical Twilight 5:00 AM CDT 8:59 PM CDT
Astronomical Twilight 4:20 AM CDT 9:38 PM CDT
Moon 2:35 AM CDT 5:23 PM CDT
Length of Visible Light 14h 44m
Length of Day
13h 43m
Tomorrow will be 2m 46s shorter.
Waning Crescent, 14% of the Moon is Illuminated
Today
Waning Crescent
Aug 25
New
Sep 2
First Quarter
Sep 8
Full
Sep 15
Last Quarter

Today's Extremes

State Highs State Lows

Community

WunderPhotos

Upload Photos

1,745,918 photos uploaded!

WunderBlogs® & News

Nearby

Snow Depth

Station Depth Elevation
No new snow has been reported.

Earthquake Activity

City Distance Mag. Time & Date
No recent earthquake activity has been reported nearby.
Minimum magnitude displayed is 2.5.

Coastal Water Temperatures

Place Temperature
No Stations Reporting

Nearby Weather Stations